Time;durP1;ratioP1;P1;durP2;ratioP2;P2;SDS_P1;SDS_P2;PMS_P1;PMS_P2;Temp;Humidity;BMP_temperature;BMP_pressure;BME280_temperature;BME280_humidity;BME280_pressure;Samples;Min_cycle;Max_cycle;Signal;HPM_P1;HPM_P2
2023/08/22 00:00:15;;;;;;;9.75;8.85;;;;;;;27.49;61.93;95734.78;6277727;22;20183;-83
2023/08/22 00:02:42;;;;;;;10.30;9.30;;;;;;;27.42;62.19;95735.13;6275704;22;20506;-83
2023/08/22 00:05:09;;;;;;;13.60;9.00;;;;;;;27.42;62.11;95735.13;6276963;22;20172;-82
2023/08/22 00:07:38;;;;;;;9.25;8.35;;;;;;;27.44;62.36;95737.47;6276608;22;20682;-82
2023/08/22 00:10:05;;;;;;;9.63;8.90;;;;;;;27.45;62.63;95731.13;6276375;22;20172;-82
2023/08/22 00:12:32;;;;;;;9.60;8.73;;;;;;;27.50;62.42;95726.59;6277602;22;20183;-83
2023/08/22 00:14:58;;;;;;;10.55;9.45;;;;;;;27.52;62.21;95727.06;6277789;22;20192;-83
2023/08/22 00:17:25;;;;;;;10.75;9.50;;;;;;;27.57;62.63;95730.72;6276759;22;20730;-83
2023/08/22 00:19:52;;;;;;;9.68;8.80;;;;;;;27.56;62.22;95729.16;6278010;22;20669;-83
2023/08/22 00:22:18;;;;;;;9.73;8.82;;;;;;;27.55;62.51;95727.56;6277999;22;20180;-83
2023/08/22 00:24:46;;;;;;;9.52;8.77;;;;;;;27.56;62.33;95731.81;6276270;22;20631;-84
2023/08/22 00:27:13;;;;;;;9.45;8.65;;;;;;;27.51;62.55;95725.50;6277104;22;20195;-84
2023/08/22 00:29:39;;;;;;;9.57;8.77;;;;;;;27.53;62.36;95719.91;6277116;22;20544;-83
2023/08/22 00:32:06;;;;;;;9.20;8.27;;;;;;;27.60;62.26;95719.63;6276440;22;20172;-84
2023/08/22 00:34:32;;;;;;;9.55;8.65;;;;;;;27.55;62.21;95733.66;6276302;22;20195;-83
2023/08/22 00:36:59;;;;;;;9.48;8.57;;;;;;;27.50;62.34;95725.78;6276816;22;20771;-83
2023/08/22 00:39:25;;;;;;;9.93;9.13;;;;;;;27.44;62.92;95734.84;6276661;22;20175;-82
2023/08/22 00:41:53;;;;;;;9.15;8.35;;;;;;;27.36;62.65;95744.16;6276873;22;20171;-83
2023/08/22 00:44:20;;;;;;;9.50;8.60;;;;;;;27.38;62.27;95722.72;6276623;22;20180;-83
2023/08/22 00:46:46;;;;;;;9.05;8.25;;;;;;;27.33;62.27;95715.63;6275655;22;20658;-83
2023/08/22 00:49:13;;;;;;;9.07;8.32;;;;;;;27.36;61.62;95679.88;6275910;22;20172;-83
2023/08/22 00:51:41;;;;;;;8.90;8.00;;;;;;;27.37;62.02;95689.41;6276844;22;20180;-83
2023/08/22 00:54:07;;;;;;;8.80;7.90;;;;;;;27.38;61.60;95683.84;6276646;22;20195;-83
2023/08/22 00:56:35;;;;;;;9.13;7.90;;;;;;;27.29;61.66;95682.88;6276753;22;20196;-83
2023/08/22 00:59:04;;;;;;;12.05;7.75;;;;;;;27.28;61.45;95681.31;6276641;22;20175;-83
2023/08/22 01:01:30;;;;;;;8.27;7.47;;;;;;;27.31;61.30;95659.59;6276717;22;20180;-83
2023/08/22 01:03:57;;;;;;;8.00;7.35;;;;;;;27.33;60.49;95643.41;6276586;22;20179;-83
2023/08/22 01:06:31;;;;;;;8.20;7.05;;;;;;;27.35;60.29;95636.00;6275345;22;20198;-83
2023/08/22 01:09:05;;;;;;;8.38;7.57;;;;;;;27.34;60.18;95634.41;6275806;22;20166;-83
2023/08/22 01:11:37;;;;;;;9.27;7.72;;;;;;;27.33;60.55;95630.19;6277295;22;20160;-82
2023/08/22 01:14:08;;;;;;;8.00;7.32;;;;;;;27.32;60.19;95633.94;6275820;22;20226;-83
2023/08/22 01:16:36;;;;;;;9.48;7.45;;;;;;;27.23;61.20;95660.19;6275899;22;20198;-83
2023/08/22 01:19:05;;;;;;;7.93;7.03;;;;;;;27.25;60.94;95660.72;6275399;22;20176;-83
2023/08/22 01:21:34;;;;;;;9.15;7.28;;;;;;;27.22;61.20;95650.69;6276161;22;20172;-83
2023/08/22 01:24:03;;;;;;;7.68;6.97;;;;;;;27.18;60.94;95642.53;6277109;22;20179;-84
2023/08/22 01:26:29;;;;;;;7.75;7.00;;;;;;;27.21;60.31;95637.75;6276368;22;20208;-83
2023/08/22 01:29:03;;;;;;;7.47;6.75;;;;;;;27.16;60.31;95634.06;6276048;22;20183;-83
2023/08/22 01:31:33;;;;;;;7.43;6.53;;;;;;;27.12;60.77;95634.94;6276908;22;20538;-83
2023/08/22 01:34:04;;;;;;;7.63;6.80;;;;;;;27.17;60.78;95632.22;6276277;22;20514;-83
2023/08/22 01:36:31;;;;;;;7.05;6.45;;;;;;;27.17;60.57;95632.22;6275805;22;20199;-83
2023/08/22 01:38:59;;;;;;;8.05;7.22;;;;;;;27.12;60.59;95635.72;6275638;22;20187;-83
2023/08/22 01:41:27;;;;;;;7.80;6.70;;;;;;;27.12;60.52;95641.00;6279314;22;20176;-83
2023/08/22 01:43:54;;;;;;;7.55;6.90;;;;;;;27.05;60.90;95642.41;6279755;22;20184;-84
2023/08/22 01:46:20;;;;;;;7.72;6.93;;;;;;;27.00;61.38;95637.94;6280108;22;20729;-83
2023/08/22 01:48:47;;;;;;;8.25;6.97;;;;;;;27.05;61.00;95647.69;6280741;22;20177;-83
2023/08/22 01:51:13;;;;;;;8.38;6.10;;;;;;;27.06;60.94;95646.63;6280739;22;20176;-83
2023/08/22 01:53:39;;;;;;;7.43;6.82;;;;;;;27.05;60.89;95652.97;6280393;22;20180;-83
2023/08/22 01:56:06;;;;;;;7.32;6.72;;;;;;;27.05;61.03;95637.09;6279345;22;20187;-83
2023/08/22 01:58:34;;;;;;;7.63;7.00;;;;;;;27.03;61.04;95637.38;6280934;22;20177;-83
2023/08/22 02:01:08;;;;;;;8.35;7.40;;;;;;;27.04;61.24;95635.53;6279666;22;20183;-84
2023/08/22 02:03:35;;;;;;;7.50;6.75;;;;;;;26.98;61.06;95641.91;6280245;22;20409;-83
2023/08/22 02:06:01;;;;;;;7.60;6.68;;;;;;;27.00;60.24;95616.00;6280138;22;20190;-82
2023/08/22 02:08:28;;;;;;;7.00;6.43;;;;;;;27.02;59.96;95596.16;6280372;22;20202;-83
2023/08/22 02:10:54;;;;;;;7.13;6.50;;;;;;;27.05;59.66;95582.38;6279235;22;20176;-83
2023/08/22 02:13:21;;;;;;;7.07;6.40;;;;;;;27.07;59.37;95572.31;6279008;22;20181;-83
2023/08/22 02:15:49;;;;;;;9.70;6.70;;;;;;;27.07;59.29;95566.25;6278697;22;20196;-83
2023/08/22 02:18:15;;;;;;;6.72;6.13;;;;;;;27.03;59.28;95563.38;6279704;22;20200;-83
2023/08/22 02:20:42;;;;;;;6.90;6.28;;;;;;;27.00;59.20;95563.16;6280846;22;20172;-83
2023/08/22 02:23:08;;;;;;;9.18;6.45;;;;;;;26.97;58.78;95551.28;6281366;22;20229;-83
2023/08/22 02:25:36;;;;;;;7.00;6.25;;;;;;;26.89;59.23;95559.00;6280241;22;20172;-82
2023/08/22 02:28:05;;;;;;;7.07;6.22;;;;;;;26.84;58.87;95546.63;6279571;22;20219;-83
2023/08/22 02:30:31;;;;;;;7.20;6.22;;;;;;;26.85;59.00;95550.84;6280906;22;20176;-83
2023/08/22 02:33:02;;;;;;;7.85;7.05;;;;;;;26.78;59.36;95539.81;6280540;22;20176;-83
2023/08/22 02:35:28;;;;;;;7.03;6.43;;;;;;;26.71;59.71;95568.44;6280869;22;20647;-83
2023/08/22 02:37:54;;;;;;;7.13;6.15;;;;;;;26.71;60.11;95566.59;6281579;22;20199;-84
2023/08/22 02:40:21;;;;;;;7.30;6.20;;;;;;;26.75;59.18;95556.22;6278652;22;20176;-83
2023/08/22 02:42:50;;;;;;;7.00;6.30;;;;;;;26.76;59.52;95549.88;6275384;22;20176;-83
2023/08/22 02:45:17;;;;;;;6.88;6.18;;;;;;;26.77;59.29;95543.53;6275603;22;20156;-83
2023/08/22 02:47:43;;;;;;;7.38;6.55;;;;;;;26.69;59.48;95550.22;6275652;22;20223;-83
2023/08/22 02:50:11;;;;;;;6.95;6.45;;;;;;;26.73;59.69;95543.31;6276225;22;20662;-82
2023/08/22 02:52:38;;;;;;;7.15;6.55;;;;;;;26.77;59.32;95536.38;6275789;22;20515;-83
2023/08/22 02:55:05;;;;;;;7.82;6.88;;;;;;;26.77;59.17;95543.53;6274799;22;20196;-83
2023/08/22 02:57:31;;;;;;;7.72;6.50;;;;;;;26.77;58.99;95549.59;6275892;22;20199;-83
2023/08/22 02:59:58;;;;;;;9.82;6.15;;;;;;;26.70;59.03;95543.09;6275162;22;20204;-83
2023/08/22 03:02:24;;;;;;;7.35;5.90;;;;;;;26.70;59.24;95533.31;6275207;22;20176;-82
2023/08/22 03:04:51;;;;;;;8.55;6.15;;;;;;;26.62;59.24;95547.09;6275716;22;20176;-83
2023/08/22 03:07:19;;;;;;;6.65;6.10;;;;;;;26.66;59.49;95545.50;6276220;22;20693;-83
2023/08/22 03:09:46;;;;;;;7.35;6.15;;;;;;;26.59;59.49;95555.59;6276379;22;20559;-84
2023/08/22 03:12:12;;;;;;;6.65;6.00;;;;;;;26.60;59.26;95554.50;6276592;22;20742;-83
2023/08/22 03:14:39;;;;;;;6.82;6.22;;;;;;;26.58;59.78;95554.00;6275369;22;20200;-83
2023/08/22 03:17:05;;;;;;;7.32;6.63;;;;;;;26.59;59.26;95552.16;6275174;22;20599;-82
2023/08/22 03:19:32;;;;;;;8.77;6.05;;;;;;;26.54;59.83;95560.13;6276011;22;20179;-82
2023/08/22 03:21:58;;;;;;;9.40;6.07;;;;;;;26.52;59.61;95557.00;6276748;22;20173;-84
2023/08/22 03:24:26;;;;;;;6.50;6.00;;;;;;;26.46;60.27;95572.88;6275234;22;20303;-84
2023/08/22 03:26:52;;;;;;;6.88;6.28;;;;;;;26.45;59.65;95576.56;6275302;22;20196;-83
2023/08/22 03:29:19;;;;;;;7.00;6.35;;;;;;;26.35;60.73;95591.72;6274872;22;20172;-83
2023/08/22 03:31:45;;;;;;;7.32;6.53;;;;;;;26.28;60.91;95628.16;6274170;22;20176;-83
2023/08/22 03:34:11;;;;;;;8.15;6.30;;;;;;;26.09;61.69;95644.63;6275510;22;20406;-83
2023/08/22 03:36:38;;;;;;;7.07;6.38;;;;;;;25.93;62.49;95663.47;6275098;22;20215;-83
2023/08/22 03:39:07;;;;;;;8.18;6.28;;;;;;;25.94;62.42;95671.13;6274844;22;20172;-83
2023/08/22 03:41:38;;;;;;;7.05;6.50;;;;;;;25.99;62.32;95663.16;6277221;22;20183;-83
2023/08/22 03:44:05;;;;;;;6.68;6.07;;;;;;;26.01;62.32;95657.59;6277612;22;20195;-83
2023/08/22 03:46:31;;;;;;;6.85;6.25;;;;;;;26.01;62.61;95663.66;6278341;22;20223;-83
2023/08/22 03:48:57;;;;;;;7.18;6.47;;;;;;;25.98;62.34;95668.72;6277831;22;20183;-83
2023/08/22 03:51:24;;;;;;;6.93;6.43;;;;;;;25.95;62.76;95685.09;6278794;22;20202;-83
2023/08/22 03:53:50;;;;;;;7.97;6.45;;;;;;;25.89;62.75;95686.16;6277093;22;20176;-83
2023/08/22 03:56:17;;;;;;;7.68;6.40;;;;;;;25.86;63.27;95695.41;6277308;22;20196;-83
2023/08/22 03:58:45;;;;;;;6.95;6.13;;;;;;;25.91;63.20;95691.97;6277711;22;20203;-83
2023/08/22 04:01:11;;;;;;;7.75;6.68;;;;;;;25.86;63.77;95702.53;6276594;22;20202;-83
2023/08/22 04:03:37;;;;;;;7.38;6.60;;;;;;;25.82;63.61;95718.09;6276494;22;20176;-83
2023/08/22 04:06:07;;;;;;;7.75;6.72;;;;;;;25.73;63.86;95727.66;6276924;22;20199;-83
2023/08/22 04:08:33;;;;;;;7.93;7.15;;;;;;;25.64;64.47;95735.31;6276985;22;20654;-84
2023/08/22 04:11:00;;;;;;;7.05;6.45;;;;;;;25.58;65.03;95740.84;6277857;22;20183;-83
2023/08/22 04:13:26;;;;;;;6.88;6.30;;;;;;;25.58;65.30;95760.09;6277588;22;20176;-83
2023/08/22 04:15:54;;;;;;;7.43;6.72;;;;;;;25.54;65.59;95771.44;6277436;22;20192;-84
2023/08/22 04:18:20;;;;;;;8.73;6.57;;;;;;;25.49;65.45;95764.31;6278920;22;20204;-83
2023/08/22 04:20:47;;;;;;;8.65;7.15;;;;;;;25.54;65.52;95755.63;6277714;22;20176;-83
2023/08/22 04:23:13;;;;;;;8.73;7.07;;;;;;;25.58;65.68;95762.75;6278061;22;20172;-83
2023/08/22 04:25:39;;;;;;;9.02;6.68;;;;;;;25.46;66.13;95775.41;6278039;22;20172;-84
2023/08/22 04:28:06;;;;;;;8.55;6.78;;;;;;;25.40;66.31;95800.97;6277829;22;20192;-84
2023/08/22 04:30:33;;;;;;;7.70;7.03;;;;;;;25.51;66.18;95793.06;6274596;22;20546;-86
2023/08/22 04:33:00;;;;;;;7.20;6.63;;;;;;;25.66;66.64;95801.78;6274269;22;20477;-86
2023/08/22 04:35:27;;;;;;;7.50;6.80;;;;;;;25.74;66.00;95774.88;6273582;22;20678;-85
2023/08/22 04:37:53;;;;;;;7.50;6.80;;;;;;;25.81;65.79;95791.19;6271946;22;20203;-85
2023/08/22 04:40:20;;;;;;;7.53;6.80;;;;;;;25.87;65.34;95783.25;6271062;22;20188;-84
2023/08/22 04:42:46;;;;;;;7.97;6.88;;;;;;;25.79;65.35;95774.84;6271577;22;20516;-85
2023/08/22 04:45:13;;;;;;;7.78;7.07;;;;;;;25.68;65.77;95781.19;6272566;22;20174;-85
2023/08/22 04:47:39;;;;;;;7.53;6.82;;;;;;;25.64;66.37;95795.97;6273588;22;20199;-85
2023/08/22 04:50:09;;;;;;;8.35;7.38;;;;;;;25.60;66.57;95804.63;6274652;22;20172;-85
2023/08/22 04:52:35;;;;;;;7.97;7.20;;;;;;;25.60;66.65;95794.88;6274859;22;20567;-84
2023/08/22 04:55:03;;;;;;;7.35;6.60;;;;;;;25.62;66.33;95792.81;6274240;22;20432;-85
2023/08/22 04:57:29;;;;;;;8.68;7.13;;;;;;;25.71;66.09;95796.50;6274872;22;20192;-85
2023/08/22 04:59:56;;;;;;;8.75;7.50;;;;;;;25.74;66.64;95803.09;6273613;22;20180;-85
2023/08/22 05:02:23;;;;;;;8.27;7.57;;;;;;;25.74;66.66;95793.31;6273221;22;20180;-85
2023/08/22 05:04:50;;;;;;;8.43;7.75;;;;;;;25.71;66.92;95817.59;6274612;22;20179;-85
2023/08/22 05:07:23;;;;;;;7.93;7.10;;;;;;;25.73;67.76;95819.97;6274561;22;20200;-85
2023/08/22 05:09:50;;;;;;;8.13;7.32;;;;;;;25.73;67.59;95819.97;6274408;22;20215;-84
2023/08/22 05:12:16;;;;;;;8.00;7.20;;;;;;;25.81;67.73;95820.19;6275032;22;20723;-85
2023/08/22 05:14:43;;;;;;;8.23;7.50;;;;;;;25.93;67.12;95813.88;6274181;22;20176;-85
2023/08/22 05:17:09;;;;;;;8.60;6.93;;;;;;;26.04;66.23;95796.94;6275059;22;20203;-85
2023/08/22 05:19:36;;;;;;;8.32;7.55;;;;;;;26.13;66.07;95782.13;6274419;22;20172;-85
2023/08/22 05:22:02;;;;;;;8.32;7.63;;;;;;;26.10;65.87;95782.69;6274090;22;20180;-84
2023/08/22 05:24:30;;;;;;;8.93;7.10;;;;;;;26.18;65.60;95776.81;6273095;22;20183;-85
2023/08/22 05:26:56;;;;;;;9.60;7.15;;;;;;;26.22;64.99;95764.66;6274001;22;20196;-84
2023/08/22 05:29:24;;;;;;;7.80;7.00;;;;;;;26.19;65.09;95759.91;6275195;22;20172;-85
2023/08/22 05:31:50;;;;;;;7.70;6.70;;;;;;;26.25;65.21;95760.69;6275315;22;20172;-85
2023/08/22 05:34:17;;;;;;;8.05;7.25;;;;;;;26.27;65.19;95763.88;6274887;22;20514;-85
2023/08/22 05:36:43;;;;;;;10.45;7.13;;;;;;;26.28;65.88;95774.16;6273697;22;20203;-85
2023/08/22 05:39:10;;;;;;;7.57;6.90;;;;;;;26.30;66.10;95790.56;6274799;22;20172;-84
2023/08/22 05:41:38;;;;;;;7.85;6.80;;;;;;;26.37;66.16;95792.88;6274764;22;20176;-84
2023/08/22 05:44:05;;;;;;;9.15;7.38;;;;;;;26.40;66.32;95808.19;6273927;22;20176;-85
2023/08/22 05:46:31;;;;;;;7.85;6.53;;;;;;;26.47;66.49;95801.56;6274059;22;20188;-85
2023/08/22 05:48:58;;;;;;;8.55;6.95;;;;;;;26.52;66.52;95803.41;6273980;22;20644;-85
2023/08/22 05:51:24;;;;;;;10.07;6.68;;;;;;;26.51;66.59;95815.03;6274578;22;20176;-85
2023/08/22 05:53:50;;;;;;;9.75;7.55;;;;;;;26.53;66.26;95804.97;6276160;22;20176;-85
2023/08/22 05:56:17;;;;;;;9.55;7.30;;;;;;;26.61;66.43;95807.03;6275242;22;20513;-85
2023/08/22 05:58:45;;;;;;;8.48;7.15;;;;;;;26.70;65.77;95791.41;6275173;22;20727;-85
2023/08/22 06:01:11;;;;;;;7.97;7.28;;;;;;;26.71;65.73;95785.84;6274163;22;20180;-85
2023/08/22 06:03:39;;;;;;;8.65;7.13;;;;;;;26.77;65.80;95799.81;6276325;22;20176;-86
2023/08/22 06:06:06;;;;;;;7.35;6.55;;;;;;;26.78;65.65;95793.47;6277278;22;20183;-84
2023/08/22 06:08:33;;;;;;;7.47;6.72;;;;;;;26.88;65.13;95782.06;6276597;22;20215;-85
2023/08/22 06:10:59;;;;;;;7.75;6.82;;;;;;;26.93;64.79;95774.09;6276320;22;20175;-85
2023/08/22 06:13:25;;;;;;;7.13;6.45;;;;;;;26.92;65.03;95765.38;6275639;22;20175;-83
2023/08/22 06:15:53;;;;;;;9.60;6.60;;;;;;;27.03;64.88;95764.25;6274084;22;20223;-84
2023/08/22 06:18:20;;;;;;;8.95;6.47;;;;;;;27.04;64.62;95757.91;6276095;22;20192;-84
2023/08/22 06:20:46;;;;;;;7.47;6.63;;;;;;;27.11;64.22;95752.31;6275381;22;20176;-83
2023/08/22 06:23:13;;;;;;;7.60;6.30;;;;;;;27.21;63.65;95749.56;6275756;22;20270;-85
2023/08/22 06:25:39;;;;;;;8.35;6.80;;;;;;;27.30;63.62;95744.50;6275589;22;20168;-85
2023/08/22 06:28:06;;;;;;;7.82;6.28;;;;;;;27.37;63.35;95721.13;6275651;22;20196;-85
2023/08/22 06:30:32;;;;;;;7.10;6.50;;;;;;;27.35;62.48;95689.69;6276277;22;20179;-83
2023/08/22 06:33:00;;;;;;;8.23;6.72;;;;;;;27.38;61.90;95688.34;6275001;22;20180;-83
2023/08/22 06:35:28;;;;;;;7.10;6.47;;;;;;;27.48;61.66;95677.66;6275334;22;20196;-82
2023/08/22 06:37:54;;;;;;;10.20;9.30;;;;;;;27.52;60.90;95660.13;6275175;22;20582;-82
2023/08/22 06:40:22;;;;;;;7.85;7.15;;;;;;;27.47;60.52;95639.84;6275999;22;20180;-83
2023/08/22 06:42:49;;;;;;;10.73;7.30;;;;;;;27.55;60.86;95641.06;6274883;22;20639;-84
2023/08/22 06:45:16;;;;;;;9.38;7.60;;;;;;;27.74;60.91;95649.88;6274420;22;20638;-84
2023/08/22 06:47:42;;;;;;;8.35;7.55;;;;;;;27.87;60.04;95623.78;6274324;22;20200;-83
2023/08/22 06:50:10;;;;;;;10.80;7.45;;;;;;;27.94;59.08;95584.50;6275886;22;20184;-83
2023/08/22 06:52:37;;;;;;;11.02;9.95;;;;;;;28.00;58.06;95555.03;6274980;22;20176;-83
2023/08/22 06:55:03;;;;;;;10.43;9.40;;;;;;;28.05;57.54;95536.44;6274929;22;20202;-81
2023/08/22 06:57:30;;;;;;;12.00;10.75;;;;;;;28.10;56.77;95507.22;6273986;22;20203;-83
2023/08/22 06:59:56;;;;;;;11.02;8.80;;;;;;;28.24;57.04;95499.38;6275254;22;20183;-83
2023/08/22 07:02:23;;;;;;;9.88;8.15;;;;;;;28.36;56.75;95486.44;6273332;22;20195;-82
2023/08/22 07:04:49;;;;;;;9.07;8.18;;;;;;;28.51;56.12;95459.69;6275094;22;20176;-83
2023/08/22 07:07:17;;;;;;;12.13;8.40;;;;;;;28.61;55.52;95445.47;6274587;22;20199;-82
2023/08/22 07:09:43;;;;;;;13.55;8.48;;;;;;;28.66;54.63;95416.25;6274925;22;20203;-83
2023/08/22 07:12:10;;;;;;;10.57;8.70;;;;;;;28.72;54.07;95390.41;6274319;22;20188;-83
2023/08/22 07:14:41;;;;;;;8.88;8.07;;;;;;;28.75;53.95;95364.09;6274436;22;20561;-82
2023/08/22 07:17:08;;;;;;;12.25;8.52;;;;;;;28.85;53.93;95363.16;6274879;22;20222;-82
2023/08/22 07:19:34;;;;;;;11.57;7.78;;;;;;;28.95;53.62;95370.09;6275882;22;20172;-82
2023/08/22 07:22:01;;;;;;;9.90;7.75;;;;;;;29.04;53.13;95352.41;6275115;22;20194;-82
2023/08/22 07:24:28;;;;;;;12.23;8.43;;;;;;;29.12;52.58;95339.19;6274126;22;20183;-82
2023/08/22 07:26:55;;;;;;;8.85;8.05;;;;;;;29.25;52.66;95334.16;6274659;22;20188;-81
2023/08/22 07:29:22;;;;;;;10.48;8.23;;;;;;;29.34;52.50;95324.41;6274016;22;20492;-81
2023/08/22 07:31:48;;;;;;;10.88;8.40;;;;;;;29.45;52.45;95307.94;6274528;22;20176;-82
2023/08/22 07:34:15;;;;;;;11.07;8.10;;;;;;;29.62;51.74;95302.00;6273612;22;20565;-83
2023/08/22 07:36:41;;;;;;;10.00;8.20;;;;;;;29.74;51.86;95293.47;6273577;22;20196;-83
2023/08/22 07:39:07;;;;;;;9.05;7.82;;;;;;;29.90;51.50;95300.72;6275480;22;20635;-83
2023/08/22 07:41:35;;;;;;;11.52;8.15;;;;;;;30.08;50.96;95288.31;6276279;22;20188;-83
2023/08/22 07:44:02;;;;;;;10.45;8.27;;;;;;;30.17;50.41;95267.13;6275947;22;20192;-82
2023/08/22 07:46:28;;;;;;;10.30;8.13;;;;;;;30.32;50.05;95237.47;6275924;22;20202;-85
2023/08/22 07:48:54;;;;;;;9.65;8.15;;;;;;;30.50;49.91;95232.94;6276502;22;20180;-84
2023/08/22 07:51:21;;;;;;;9.85;8.35;;;;;;;30.65;49.36;95208.59;6277055;22;20176;-85
2023/08/22 07:53:47;;;;;;;10.65;8.77;;;;;;;30.74;49.53;95201.41;6277703;22;20179;-82
2023/08/22 07:56:14;;;;;;;10.70;9.43;;;;;;;30.78;48.69;95169.66;6277282;22;20195;-84
2023/08/22 07:58:42;;;;;;;10.43;8.65;;;;;;;30.85;48.54;95151.34;6276126;22;20180;-83
2023/08/22 08:01:09;;;;;;;9.82;8.02;;;;;;;30.93;47.91;95147.91;6275266;22;20172;-84
2023/08/22 08:03:35;;;;;;;10.82;8.73;;;;;;;30.98;48.09;95133.66;6275431;22;20700;-84
2023/08/22 08:06:02;;;;;;;12.68;8.25;;;;;;;31.24;48.35;95161.78;6275393;22;20750;-84
2023/08/22 08:08:28;;;;;;;9.27;8.27;;;;;;;31.36;47.64;95129.19;6275239;22;20183;-83
2023/08/22 08:10:55;;;;;;;11.02;8.45;;;;;;;31.53;47.77;95129.13;6276118;22;20172;-84
2023/08/22 08:13:21;;;;;;;13.00;8.35;;;;;;;31.60;47.07;95109.97;6276638;22;20199;-85
2023/08/22 08:15:50;;;;;;;12.45;8.85;;;;;;;31.67;47.42;95125.47;6276535;22;20172;-83
2023/08/22 08:18:16;;;;;;;8.32;7.60;;;;;;;31.91;46.82;95120.31;6277320;22;20199;-84
2023/08/22 08:20:43;;;;;;;13.02;8.55;;;;;;;31.87;46.44;95087.44;6278064;22;20182;-84
2023/08/22 08:23:10;;;;;;;9.77;8.57;;;;;;;32.00;46.96;95088.28;6277807;22;20639;-84
2023/08/22 08:25:36;;;;;;;12.18;9.88;;;;;;;32.11;46.86;95092.91;6278092;22;20176;-84
2023/08/22 08:28:04;;;;;;;10.45;8.60;;;;;;;32.33;46.34;95081.16;6278105;22;20701;-83
2023/08/22 08:30:31;;;;;;;10.27;8.85;;;;;;;32.49;46.11;95052.81;6278095;22;20246;-84
2023/08/22 08:32:59;;;;;;;11.60;8.52;;;;;;;32.48;45.86;95040.59;6277846;22;20639;-84
2023/08/22 08:35:25;;;;;;;10.00;8.52;;;;;;;32.49;45.99;95052.03;6276839;22;20490;-83
2023/08/22 08:37:52;;;;;;;8.90;8.10;;;;;;;32.64;45.71;95055.94;6276534;22;20199;-83
2023/08/22 08:40:19;;;;;;;9.15;8.25;;;;;;;32.77;45.78;95045.00;6277323;22;20983;-83
2023/08/22 08:42:46;;;;;;;12.40;8.27;;;;;;;32.89;45.63;95026.38;6277589;22;20176;-84
2023/08/22 08:45:14;;;;;;;9.45;7.97;;;;;;;33.09;45.05;95034.63;6276287;22;20160;-83
2023/08/22 08:47:41;;;;;;;11.13;7.47;;;;;;;33.12;44.94;95004.56;6277029;22;20834;-84
2023/08/22 08:50:10;;;;;;;8.35;7.55;;;;;;;33.09;45.16;95013.28;6277006;22;20176;-84
2023/08/22 08:52:37;;;;;;;11.77;8.00;;;;;;;33.08;44.89;95022.38;6275377;22;20183;-84
2023/08/22 08:55:05;;;;;;;7.70;7.10;;;;;;;33.13;44.59;95000.81;6275568;22;20176;-84
2023/08/22 08:57:32;;;;;;;8.43;7.53;;;;;;;33.25;44.77;94993.63;6276432;22;20200;-84
2023/08/22 09:00:01;;;;;;;12.15;10.40;;;;;;;33.49;44.35;94968.75;6275273;22;20168;-84
2023/08/22 09:02:28;;;;;;;9.55;8.10;;;;;;;33.55;43.55;94942.63;6275964;22;20222;-84
2023/08/22 09:04:55;;;;;;;8.60;7.80;;;;;;;33.60;43.34;94945.06;6276082;22;20533;-84
2023/08/22 09:07:23;;;;;;;10.05;7.65;;;;;;;33.66;43.19;94930.34;6274862;22;20691;-84
2023/08/22 09:09:50;;;;;;;8.60;7.68;;;;;;;33.87;43.21;94932.84;6274242;22;20517;-84
2023/08/22 09:12:16;;;;;;;8.20;7.50;;;;;;;34.01;43.36;94922.56;6275946;22;20176;-84
2023/08/22 09:14:45;;;;;;;8.55;7.63;;;;;;;34.16;42.80;94921.03;6276023;22;20458;-84
2023/08/22 09:17:14;;;;;;;9.80;7.65;;;;;;;34.23;42.83;94902.50;6275604;22;20679;-84
2023/08/22 09:19:40;;;;;;;10.50;8.05;;;;;;;34.35;42.83;94893.66;6276524;22;20259;-84
2023/08/22 09:22:07;;;;;;;8.80;7.90;;;;;;;34.43;42.85;94898.84;6276426;22;20173;-84
2023/08/22 09:24:35;;;;;;;8.32;7.53;;;;;;;34.57;42.04;94860.97;6274920;22;20267;-84
2023/08/22 09:27:03;;;;;;;10.73;7.93;;;;;;;34.73;41.56;94842.22;6273817;22;20192;-84
2023/08/22 09:29:30;;;;;;;8.88;6.75;;;;;;;34.92;41.49;94842.28;6276749;22;20234;-83
2023/08/22 09:31:58;;;;;;;8.45;7.50;;;;;;;35.03;41.33;94816.53;6277865;22;20172;-84
2023/08/22 09:34:24;;;;;;;8.32;7.43;;;;;;;35.01;40.40;94788.59;6277086;22;20183;-83
2023/08/22 09:36:53;;;;;;;9.95;6.50;;;;;;;35.12;39.88;94770.81;6277353;22;20196;-84
2023/08/22 09:39:19;;;;;;;8.90;7.47;;;;;;;35.26;39.57;94749.69;6276327;22;20168;-83
2023/08/22 09:41:51;;;;;;;8.05;7.35;;;;;;;35.20;39.63;94729.69;6275240;22;20207;-84
2023/08/22 09:44:21;;;;;;;8.15;7.38;;;;;;;35.29;39.75;94743.66;6277568;22;20210;-84
2023/08/22 09:46:50;;;;;;;10.23;8.43;;;;;;;35.29;39.98;94754.38;6275721;22;20849;-84
2023/08/22 09:49:17;;;;;;;8.73;7.82;;;;;;;35.35;39.82;94760.22;6278691;22;20172;-83
2023/08/22 09:51:44;;;;;;;9.77;7.50;;;;;;;35.34;40.03;94756.75;6276430;22;20231;-83
2023/08/22 09:54:11;;;;;;;8.45;7.18;;;;;;;35.42;39.21;94725.50;6277023;22;20367;-83
2023/08/22 09:56:38;;;;;;;8.48;7.20;;;;;;;35.57;39.60;94746.09;6275952;22;20203;-83
2023/08/22 09:59:06;;;;;;;9.05;6.90;;;;;;;35.74;39.41;94747.50;6276112;22;20167;-82
2023/08/22 10:01:35;;;;;;;9.57;7.10;;;;;;;35.83;39.28;94740.03;6275744;22;20639;-84
2023/08/22 10:04:04;;;;;;;7.82;6.80;;;;;;;35.89;39.02;94701.09;6277339;22;20183;-84
2023/08/22 10:06:32;;;;;;;7.47;6.50;;;;;;;35.96;38.45;94696.63;6278068;22;20271;-83
2023/08/22 10:09:00;;;;;;;7.43;6.80;;;;;;;35.90;38.61;94690.00;6276423;22;20258;-83
2023/08/22 10:11:29;;;;;;;9.90;7.97;;;;;;;36.05;38.65;94698.25;6277002;22;20180;-83
2023/08/22 10:13:55;;;;;;;10.77;8.88;;;;;;;36.12;38.43;94691.13;6276597;22;20176;-83
2023/08/22 10:16:28;;;;;;;8.82;8.00;;;;;;;36.09;38.08;94648.94;6274845;22;20204;-82
2023/08/22 10:19:01;;;;;;;7.93;6.80;;;;;;;36.16;37.82;94651.72;6277080;22;20174;-84
2023/08/22 10:21:32;;;;;;;8.55;6.70;;;;;;;36.17;38.27;94657.88;6276611;22;20235;-83
2023/08/22 10:23:59;;;;;;;7.22;6.53;;;;;;;36.23;37.88;94659.84;6277350;22;20161;-83
2023/08/22 10:26:29;;;;;;;8.23;5.95;;;;;;;36.02;37.12;94589.09;6276905;22;20196;-83
2023/08/22 10:29:17;;;;;;;6.65;5.53;;;;;;;35.74;37.25;94584.09;6277011;22;20245;-83
2023/08/22 10:32:19;;;;;;;8.50;6.65;;;;;;;35.90;37.90;94657.09;6265164;22;20579;-85
2023/08/22 10:35:24;;;;;;;7.53;6.43;;;;;;;36.13;37.68;94639.06;6268353;22;20176;-84
2023/08/22 10:37:52;;;;;;;6.88;6.38;;;;;;;36.23;37.51;94621.53;6151904;23;20199;-84
2023/08/22 10:40:25;;;;;;;9.60;5.95;;;;;;;36.27;38.02;94657.25;6255574;22;20168;-84
2023/08/22 10:43:12;;;;;;;7.85;6.15;;;;;;;36.18;37.51;94603.13;6278110;22;20184;-84
2023/08/22 10:45:39;;;;;;;6.47;5.88;;;;;;;36.09;37.60;94616.00;6278790;22;20178;-84
2023/08/22 10:48:10;;;;;;;6.65;6.10;;;;;;;36.15;38.04;94649.41;6275576;22;20284;-84
2023/08/22 10:50:36;;;;;;;6.85;6.15;;;;;;;36.11;38.16;94643.22;6283612;22;20538;-83
2023/08/22 10:53:24;;;;;;;8.18;6.32;;;;;;;36.11;37.97;94633.28;6286996;22;20187;-84
2023/08/22 10:55:51;;;;;;;6.78;6.10;;;;;;;36.19;38.24;94648.31;6290593;22;20176;-83
2023/08/22 10:58:42;;;;;;;7.38;6.15;;;;;;;36.24;38.22;94671.38;6290662;22;20200;-84
2023/08/22 11:01:11;;;;;;;6.60;6.10;;;;;;;36.24;38.25;94666.78;6279786;22;20199;-83
2023/08/22 11:03:39;;;;;;;6.75;6.15;;;;;;;36.13;37.91;94639.06;6289683;22;20176;-83
2023/08/22 11:06:13;;;;;;;7.47;6.20;;;;;;;36.19;37.97;94639.50;6290482;22;20223;-83
2023/08/22 11:08:42;;;;;;;7.85;6.47;;;;;;;36.21;37.60;94608.50;6290802;22;20172;-83
2023/08/22 11:11:09;;;;;;;7.20;6.55;;;;;;;36.24;37.81;94631.16;6289415;22;20176;-83
2023/08/22 11:13:39;;;;;;;6.78;6.18;;;;;;;36.26;37.92;94631.56;6288971;22;20227;-83
2023/08/22 11:16:11;;;;;;;9.00;6.20;;;;;;;36.31;37.13;94599.09;6286681;22;20186;-83
2023/08/22 11:18:39;;;;;;;6.38;5.78;;;;;;;36.19;37.53;94610.00;6283058;22;20251;-84
2023/08/22 11:21:07;;;;;;;7.18;6.50;;;;;;;36.24;37.97;94631.16;6282782;22;20180;-84
2023/08/22 11:23:34;;;;;;;6.72;6.03;;;;;;;36.23;37.78;94630.34;6283402;22;20233;-84
2023/08/22 11:26:02;;;;;;;6.47;5.78;;;;;;;36.33;37.87;94626.31;6282486;22;20251;-83
2023/08/22 11:28:37;;;;;;;8.50;6.13;;;;;;;36.27;37.70;94609.00;6282187;22;20192;-83
2023/08/22 11:31:04;;;;;;;6.95;5.90;;;;;;;36.25;37.34;94584.44;6282514;22;20187;-84
2023/08/22 11:33:49;;;;;;;7.10;6.22;;;;;;;36.27;37.77;94611.69;6281644;22;20697;-85